Terminal Aerodrome Forecast
Issued by NWS

Home | Current Version | Previous Version | Graphics & Text | Print | Product List | Glossary On
Versions: 1 2 3 4 5 6 7 8 9 10 11 12 13 14 15 16 17 18 19 20 21 22 23 24
000
FTUS43 KLOT 142104 AAA
TAFGYY
TAF AMD
KGYY 142104Z 1421/1518 18007KT P6SM SCT050 BKN250
     FM142200 20007KT P6SM SCT050
     FM150300 21006KT P6SM VCTS SCT040CB BKN080
     FM150700 23006KT P6SM SCT030 BKN060
     FM151200 33006KT 6SM BR BKN025
     FM151600 01007KT P6SM SCT050=

USA.gov is the U.S. government's official web portal to all federal, state and local government web resources and services.